Time;durP1;ratioP1;P1;durP2;ratioP2;P2;SDS_P1;SDS_P2;PMS_P1;PMS_P2;Temp;Humidity;BMP_temperature;BMP_pressure;BME280_temperature;BME280_humidity;BME280_pressure;Samples;Min_cycle;Max_cycle;Signal;HPM_P1;HPM_P2
2023/02/24 00:00:32;;;;;;;11.10;7.67;;;5.60;99.90;;;;;;5039598;28;20725;-51
2023/02/24 00:03:04;;;;;;;12.63;8.07;;;5.60;99.90;;;;;;5035620;28;20199;-49
2023/02/24 00:05:34;;;;;;;10.20;7.87;;;5.50;99.90;;;;;;5052753;28;20294;-48
2023/02/24 00:08:01;;;;;;;15.47;8.33;;;5.40;99.90;;;;;;5052778;28;20261;-50
2023/02/24 00:10:28;;;;;;;14.13;8.10;;;5.40;99.90;;;;;;5045939;28;20288;-49
2023/02/24 00:12:57;;;;;;;17.20;8.63;;;5.40;99.90;;;;;;5031996;28;20216;-49
2023/02/24 00:15:24;;;;;;;13.77;8.60;;;5.40;99.90;;;;;;5032450;28;20266;-50
2023/02/24 00:17:51;;;;;;;9.13;8.23;;;5.40;99.90;;;;;;5032898;28;20201;-50
2023/02/24 00:20:18;;;;;;;13.27;8.03;;;5.30;99.90;;;;;;5032471;28;20783;-49
2023/02/24 00:22:45;;;;;;;8.80;6.83;;;5.30;99.90;;;;;;5035831;28;20200;-50
2023/02/24 00:25:13;;;;;;;9.03;7.43;;;5.20;99.90;;;;;;5029589;28;20202;-53
2023/02/24 00:27:42;;;;;;;9.33;7.53;;;5.20;99.90;;;;;;5039458;28;20263;-50
2023/02/24 00:30:12;;;;;;;12.00;7.37;;;5.10;99.90;;;;;;5038781;28;20604;-50
2023/02/24 00:32:41;;;;;;;14.43;8.40;;;5.00;99.90;;;;;;5031482;28;20231;-49
2023/02/24 00:35:08;;;;;;;11.00;8.47;;;5.00;99.90;;;;;;5032922;28;20197;-48
2023/02/24 00:37:36;;;;;;;12.93;9.07;;;4.90;99.90;;;;;;5029548;28;20251;-49
2023/02/24 00:40:09;;;;;;;13.50;9.17;;;4.90;99.90;;;;;;5035302;28;20268;-49
2023/02/24 00:42:41;;;;;;;12.23;7.47;;;4.90;99.90;;;;;;5034382;28;20616;-49
2023/02/24 00:45:10;;;;;;;14.27;8.00;;;4.90;99.90;;;;;;5036662;28;20199;-49
2023/02/24 00:47:42;;;;;;;11.30;7.90;;;4.90;99.90;;;;;;5039944;28;20200;-51
2023/02/24 00:50:12;;;;;;;7.40;6.40;;;4.90;99.90;;;;;;5029797;28;20280;-50
2023/02/24 00:52:43;;;;;;;8.67;7.57;;;4.90;99.90;;;;;;5030503;28;20247;-50
2023/02/24 00:55:13;;;;;;;10.40;8.33;;;4.90;99.90;;;;;;5036230;28;20205;-49
2023/02/24 00:57:41;;;;;;;9.00;7.93;;;4.90;99.90;;;;;;5040404;28;20208;-49
2023/02/24 01:00:15;;;;;;;14.63;7.83;;;4.90;99.90;;;;;;5065848;22;20223;-49
2023/02/24 01:02:46;;;;;;;13.90;8.77;;;4.90;99.90;;;;;;5052132;28;20291;-49
2023/02/24 01:05:13;;;;;;;8.23;7.43;;;4.80;99.90;;;;;;5052963;28;20731;-47
2023/02/24 01:07:43;;;;;;;9.77;7.70;;;4.80;99.90;;;;;;5058465;28;20201;-48
2023/02/24 01:10:12;;;;;;;9.50;7.60;;;4.80;99.90;;;;;;5058291;28;20219;-48
2023/02/24 01:12:49;;;;;;;11.03;8.00;;;4.70;99.90;;;;;;5051784;28;20282;-48
2023/02/24 01:15:20;;;;;;;9.03;7.33;;;4.70;99.90;;;;;;5061602;28;20202;-49
2023/02/24 01:17:47;;;;;;;13.20;8.00;;;4.70;99.90;;;;;;5062728;28;20261;-48
2023/02/24 01:20:16;;;;;;;11.03;8.30;;;4.70;99.90;;;;;;5062458;28;20559;-47
2023/02/24 01:22:44;;;;;;;8.87;7.10;;;4.60;99.90;;;;;;5051048;28;20199;-47
2023/02/24 01:25:11;;;;;;;11.17;7.33;;;4.60;99.90;;;;;;5049031;28;20197;-47
2023/02/24 01:27:42;;;;;;;10.97;7.50;;;4.60;99.90;;;;;;5051236;28;20208;-48
2023/02/24 01:30:14;;;;;;;10.30;8.00;;;4.60;99.90;;;;;;5060657;28;20230;-48
2023/02/24 01:32:46;;;;;;;16.20;9.23;;;4.70;99.90;;;;;;5051203;28;20227;-48
2023/02/24 01:35:14;;;;;;;11.73;9.60;;;4.70;99.90;;;;;;5055295;28;20193;-48
2023/02/24 01:37:44;;;;;;;16.77;8.67;;;4.60;99.90;;;;;;5050345;28;20203;-48
2023/02/24 01:40:17;;;;;;;14.87;8.40;;;4.60;99.90;;;;;;5055133;28;20261;-48
2023/02/24 01:42:48;;;;;;;11.20;6.83;;;4.50;99.90;;;;;;5050572;28;20199;-48
2023/02/24 01:45:20;;;;;;;9.80;8.03;;;4.40;99.90;;;;;;5055598;28;20598;-49
2023/02/24 01:47:49;;;;;;;11.63;9.07;;;4.40;99.90;;;;;;5070358;28;20499;-49
2023/02/24 01:50:20;;;;;;;16.43;8.60;;;4.40;99.90;;;;;;5058318;28;20220;-49
2023/02/24 01:52:49;;;;;;;9.10;7.43;;;4.40;99.90;;;;;;5054194;28;20220;-48
2023/02/24 01:55:22;;;;;;;11.17;7.93;;;4.30;99.90;;;;;;5050754;28;20207;-47
2023/02/24 01:57:52;;;;;;;12.03;8.60;;;4.30;99.90;;;;;;5061350;28;20199;-48
2023/02/24 02:03:08;;;;;;;11.67;8.27;;;4.20;99.90;;;;;;5046114;28;20197;-47
2023/02/24 02:05:37;;;;;;;11.23;8.63;;;4.10;99.90;;;;;;5058876;28;20223;-48
2023/02/24 02:08:07;;;;;;;12.80;7.90;;;4.10;99.90;;;;;;5057678;28;20203;-48
2023/02/24 02:10:37;;;;;;;13.57;8.87;;;4.10;99.90;;;;;;5057275;28;20223;-47
2023/02/24 02:13:05;;;;;;;16.53;9.03;;;4.10;99.90;;;;;;5056828;28;20232;-48
2023/02/24 02:15:35;;;;;;;16.13;8.10;;;4.10;99.90;;;;;;5048363;28;20206;-48
2023/02/24 02:18:12;;;;;;;11.47;7.97;;;4.10;99.90;;;;;;5052009;28;20204;-48
2023/02/24 02:21:18;;;;;;;13.87;8.47;;;4.10;99.90;;;;;;5059872;28;20219;-48
2023/02/24 02:24:18;;;;;;;19.27;8.37;;;4.10;99.90;;;;;;5049962;28;20196;-49
2023/02/24 02:27:23;;;;;;;8.87;7.77;;;4.10;99.90;;;;;;5046257;28;20199;-47
2023/02/24 02:30:32;;;;;;;13.33;7.23;;;4.00;99.90;;;;;;5052093;28;20314;-49
2023/02/24 02:33:35;;;;;;;12.70;8.30;;;4.00;99.90;;;;;;5028317;28;20607;-48
2023/02/24 02:36:13;;;;;;;11.67;8.73;;;4.10;99.90;;;;;;5044907;28;20207;-48
2023/02/24 02:38:50;;;;;;;15.50;9.97;;;4.10;99.90;;;;;;5053663;28;20201;-48
2023/02/24 02:41:27;;;;;;;11.10;8.77;;;4.10;99.90;;;;;;5060372;28;20231;-49
2023/02/24 02:44:07;;;;;;;12.33;8.57;;;4.10;99.90;;;;;;5055253;28;20195;-48
2023/02/24 02:46:40;;;;;;;12.20;8.93;;;4.20;99.90;;;;;;5054364;28;20233;-47
2023/02/24 02:49:16;;;;;;;14.00;9.40;;;4.10;99.90;;;;;;5064277;28;20569;-48
2023/02/24 02:51:50;;;;;;;12.87;8.70;;;4.10;99.90;;;;;;5060525;28;20208;-48
2023/02/24 02:54:22;;;;;;;9.50;8.43;;;4.00;99.90;;;;;;5058507;28;20198;-47
2023/02/24 02:56:58;;;;;;;11.40;7.87;;;4.00;99.90;;;;;;5057196;28;20201;-48
2023/02/24 02:59:29;;;;;;;11.27;9.00;;;3.90;99.90;;;;;;5055899;28;20231;-47
2023/02/24 03:02:10;;;;;;;14.73;8.50;;;3.80;99.90;;;;;;5057186;28;20337;-48
2023/02/24 03:04:41;;;;;;;13.67;7.67;;;3.90;99.90;;;;;;5064428;28;20208;-48
2023/02/24 03:07:12;;;;;;;13.07;8.80;;;3.80;99.90;;;;;;5059194;28;20207;-47
2023/02/24 03:09:43;;;;;;;11.70;8.30;;;3.70;99.90;;;;;;5062001;28;20218;-48
2023/02/24 03:12:13;;;;;;;12.60;7.93;;;3.60;99.90;;;;;;5057260;28;20641;-49
2023/02/24 03:14:49;;;;;;;18.03;8.53;;;3.50;99.90;;;;;;5060758;28;20203;-48
2023/02/24 03:17:21;;;;;;;15.30;8.53;;;3.50;99.90;;;;;;5063141;28;20275;-49
2023/02/24 03:19:59;;;;;;;13.57;9.20;;;3.50;99.90;;;;;;5052014;28;20245;-47
2023/02/24 03:22:34;;;;;;;11.03;8.13;;;3.50;99.90;;;;;;5068380;28;20249;-47
2023/02/24 03:25:03;;;;;;;11.80;9.40;;;3.40;99.90;;;;;;5049310;28;20278;-48
2023/02/24 03:27:37;;;;;;;9.50;7.90;;;3.40;99.90;;;;;;5054822;28;20571;-48
2023/02/24 03:30:15;;;;;;;9.60;8.60;;;3.40;99.90;;;;;;5044004;28;20277;-48
2023/02/24 03:32:54;;;;;;;13.00;8.33;;;3.30;99.90;;;;;;5053531;28;20315;-48
2023/02/24 03:35:23;;;;;;;19.37;9.43;;;3.30;99.90;;;;;;5063234;28;20235;-49
2023/02/24 03:37:56;;;;;;;12.80;8.50;;;3.30;99.90;;;;;;5059651;28;20203;-48
2023/02/24 03:40:27;;;;;;;13.47;8.73;;;3.30;99.90;;;;;;5059083;28;20221;-48
2023/02/24 03:43:03;;;;;;;14.40;9.70;;;3.30;99.90;;;;;;5054176;28;20228;-48
2023/02/24 03:45:33;;;;;;;13.57;9.20;;;3.30;99.90;;;;;;5055427;28;20292;-47
2023/02/24 03:48:03;;;;;;;12.70;8.43;;;3.40;99.90;;;;;;5049326;28;20206;-48
2023/02/24 03:50:31;;;;;;;9.47;7.33;;;3.40;99.90;;;;;;5060421;28;20223;-47
2023/02/24 03:53:09;;;;;;;10.10;7.83;;;3.40;99.90;;;;;;5054956;28;20296;-47
2023/02/24 03:55:48;;;;;;;13.80;8.60;;;3.40;99.90;;;;;;5060083;28;20223;-47
2023/02/24 03:58:29;;;;;;;11.10;7.97;;;3.40;99.90;;;;;;5059936;28;20194;-46
2023/02/24 04:01:04;;;;;;;12.33;8.97;;;3.50;99.90;;;;;;5055792;28;20221;-48
2023/02/24 04:03:37;;;;;;;17.03;9.20;;;3.60;99.90;;;;;;5059897;28;20197;-47
2023/02/24 04:06:12;;;;;;;15.87;9.57;;;3.70;99.90;;;;;;5032874;28;20269;-48
2023/02/24 04:08:47;;;;;;;18.17;9.90;;;3.70;99.90;;;;;;5052306;28;20200;-48
2023/02/24 04:11:22;;;;;;;14.33;8.80;;;3.70;99.90;;;;;;5052712;28;20211;-48
2023/02/24 04:13:57;;;;;;;14.80;8.97;;;3.80;99.90;;;;;;5051247;28;20220;-48
2023/02/24 04:16:28;;;;;;;13.70;8.13;;;3.80;99.90;;;;;;5054771;28;20255;-48
2023/02/24 04:18:59;;;;;;;9.70;8.60;;;3.80;99.90;;;;;;5059484;28;20231;-48
2023/02/24 04:21:30;;;;;;;14.93;9.37;;;3.80;99.90;;;;;;5060521;28;20273;-49
2023/02/24 04:24:05;;;;;;;13.13;8.83;;;3.80;99.90;;;;;;5058726;28;20204;-48
2023/02/24 04:26:33;;;;;;;9.87;7.27;;;3.90;99.90;;;;;;5054569;28;20218;-47
2023/02/24 04:29:01;;;;;;;14.20;10.33;;;3.80;99.90;;;;;;5051984;28;20265;-48
2023/02/24 04:31:29;;;;;;;10.77;8.30;;;3.90;99.90;;;;;;5056562;28;20199;-49
2023/02/24 04:33:56;;;;;;;10.63;8.97;;;3.90;99.90;;;;;;5051209;28;20231;-48
2023/02/24 04:36:26;;;;;;;12.70;9.03;;;3.90;99.90;;;;;;5058101;28;20558;-48
2023/02/24 04:38:53;;;;;;;12.57;9.53;;;3.90;99.90;;;;;;5049717;28;20652;-47
2023/02/24 04:41:21;;;;;;;13.70;9.27;;;3.90;99.90;;;;;;5053406;28;20670;-49
2023/02/24 04:43:49;;;;;;;31.87;18.27;;;3.90;99.90;;;;;;5057419;28;20234;-48
2023/02/24 04:46:17;;;;;;;38.40;21.17;;;4.00;99.90;;;;;;5053322;28;20240;-48
2023/02/24 04:48:44;;;;;;;25.37;15.50;;;4.10;99.90;;;;;;5059448;28;20684;-49
2023/02/24 04:51:12;;;;;;;19.20;12.73;;;4.20;99.90;;;;;;5059994;28;20284;-48
2023/02/24 04:53:39;;;;;;;18.83;11.23;;;4.20;99.90;;;;;;5058804;28;20219;-49
2023/02/24 04:56:08;;;;;;;17.87;10.97;;;4.20;99.90;;;;;;5053485;28;20269;-48
2023/02/24 04:58:38;;;;;;;14.87;10.60;;;4.20;99.90;;;;;;5052088;28;20236;-49
2023/02/24 05:01:09;;;;;;;20.97;9.70;;;4.30;99.90;;;;;;5056025;28;20777;-48
2023/02/24 05:03:37;;;;;;;16.97;10.37;;;4.20;99.90;;;;;;5058412;28;20282;-48
2023/02/24 05:06:07;;;;;;;15.13;9.93;;;4.10;99.90;;;;;;5047320;28;20220;-48
2023/02/24 05:08:34;;;;;;;16.40;9.73;;;4.10;99.90;;;;;;5049817;28;20211;-47
2023/02/24 05:11:03;;;;;;;17.30;10.07;;;4.00;99.90;;;;;;5054015;28;20276;-47
2023/02/24 05:13:32;;;;;;;16.30;10.30;;;4.00;99.90;;;;;;5062205;28;20329;-47
2023/02/24 05:16:06;;;;;;;14.17;9.80;;;3.90;99.90;;;;;;5043960;28;20661;-48
2023/02/24 05:18:35;;;;;;;18.43;10.27;;;3.90;99.90;;;;;;5045791;28;20196;-49
2023/02/24 05:23:52;;;;;;;19.03;10.17;;;3.80;99.90;;;;;;5060906;28;20554;-48
2023/02/24 05:26:22;;;;;;;14.57;9.57;;;3.80;99.90;;;;;;5061008;28;20568;-47
2023/02/24 05:28:51;;;;;;;19.77;10.47;;;3.80;99.90;;;;;;5062988;28;20639;-48
2023/02/24 05:31:24;;;;;;;9.53;8.53;;;3.90;99.90;;;;;;5053892;28;20231;-47
2023/02/24 05:33:54;;;;;;;13.07;8.47;;;3.90;99.90;;;;;;5062048;28;20218;-49
2023/02/24 05:36:22;;;;;;;16.83;10.00;;;3.80;99.90;;;;;;5050196;28;20222;-47
2023/02/24 05:38:54;;;;;;;14.07;10.27;;;3.90;99.90;;;;;;5059281;28;20274;-48
2023/02/24 05:41:22;;;;;;;17.97;10.53;;;3.80;99.90;;;;;;5050229;28;20205;-48
2023/02/24 05:43:53;;;;;;;22.93;13.17;;;3.70;99.90;;;;;;5058703;28;20257;-49
2023/02/24 05:46:27;;;;;;;27.73;14.93;;;3.70;99.90;;;;;;5045343;28;20210;-47
2023/02/24 05:48:56;;;;;;;28.90;16.30;;;3.70;99.90;;;;;;5061978;28;20222;-47
2023/02/24 05:51:24;;;;;;;28.13;15.63;;;3.70;99.90;;;;;;5055754;28;20232;-48
2023/02/24 05:53:54;;;;;;;21.73;14.03;;;3.70;99.90;;;;;;5051159;28;20221;-47
2023/02/24 05:56:22;;;;;;;23.47;13.57;;;3.60;99.90;;;;;;5054527;28;20245;-48
2023/02/24 05:59:00;;;;;;;18.73;13.67;;;3.70;99.90;;;;;;5047666;28;20320;-47
2023/02/24 06:01:30;;;;;;;26.37;12.40;;;3.70;99.90;;;;;;5052627;28;20206;-47
2023/02/24 06:04:04;;;;;;;20.37;13.17;;;3.70;99.90;;;;;;5054014;28;20196;-49
2023/02/24 06:06:34;;;;;;;19.30;12.53;;;3.70;99.90;;;;;;5057908;28;20195;-47
2023/02/24 06:09:06;;;;;;;16.80;12.90;;;3.70;99.90;;;;;;5056244;28;20300;-48
2023/02/24 06:11:33;;;;;;;21.17;13.10;;;3.70;99.90;;;;;;5065403;28;20231;-47
2023/02/24 06:14:00;;;;;;;19.40;12.27;;;3.70;99.90;;;;;;5060748;28;20226;-49
2023/02/24 06:16:30;;;;;;;21.20;13.13;;;3.70;99.90;;;;;;5050625;28;20623;-48
2023/02/24 06:18:57;;;;;;;21.90;13.47;;;3.70;99.90;;;;;;5059078;28;20268;-48
2023/02/24 06:21:28;;;;;;;20.90;12.50;;;3.80;99.90;;;;;;5051921;28;20195;-49
2023/02/24 06:23:56;;;;;;;24.63;14.33;;;3.80;99.90;;;;;;5057015;28;20687;-49
2023/02/24 06:26:23;;;;;;;22.10;12.80;;;3.90;99.90;;;;;;5053616;28;20204;-48
2023/02/24 06:28:53;;;;;;;19.70;13.67;;;3.90;99.90;;;;;;5056123;28;20261;-47
2023/02/24 06:31:21;;;;;;;18.37;14.40;;;4.00;99.90;;;;;;5054149;28;20275;-48
2023/02/24 06:33:52;;;;;;;20.40;15.03;;;4.10;99.90;;;;;;5072737;28;20209;-48
2023/02/24 06:36:19;;;;;;;27.97;14.67;;;4.10;99.90;;;;;;5062576;28;20203;-49
2023/02/24 06:38:48;;;;;;;22.70;13.70;;;4.10;99.90;;;;;;5053828;28;20631;-47
2023/02/24 06:41:15;;;;;;;22.47;13.27;;;4.10;99.90;;;;;;5053165;28;20222;-48
2023/02/24 06:43:45;;;;;;;21.37;13.13;;;4.10;99.90;;;;;;5062228;28;20199;-49
2023/02/24 06:46:14;;;;;;;22.80;12.90;;;4.10;99.90;;;;;;5057970;28;20283;-48
2023/02/24 06:48:42;;;;;;;19.47;10.90;;;4.20;99.90;;;;;;5054078;28;20204;-48
2023/02/24 06:51:12;;;;;;;21.33;13.10;;;4.30;99.90;;;;;;5053721;28;20204;-49
2023/02/24 06:53:41;;;;;;;26.83;14.20;;;4.40;99.90;;;;;;5065767;28;20217;-49
2023/02/24 06:56:13;;;;;;;22.63;14.43;;;4.50;99.90;;;;;;5054288;28;20256;-49
2023/02/24 06:58:43;;;;;;;22.97;13.60;;;4.50;99.90;;;;;;5058781;28;20219;-49
2023/02/24 07:01:12;;;;;;;23.63;13.93;;;4.50;99.90;;;;;;5062184;22;20224;-50
2023/02/24 07:03:45;;;;;;;24.23;15.17;;;4.50;99.90;;;;;;5013261;28;20210;-50
2023/02/24 07:06:22;;;;;;;27.33;15.10;;;4.50;99.90;;;;;;5008996;28;20203;-49
2023/02/24 07:08:50;;;;;;;25.40;15.23;;;4.60;99.90;;;;;;5009976;28;20749;-50
2023/02/24 07:11:18;;;;;;;36.77;20.87;;;4.50;99.90;;;;;;5006217;28;20220;-49
2023/02/24 07:13:46;;;;;;;26.47;16.10;;;4.60;99.90;;;;;;5006564;28;20231;-49
2023/02/24 07:16:14;;;;;;;27.40;17.07;;;4.70;99.90;;;;;;5011032;28;20207;-50
2023/02/24 07:18:42;;;;;;;32.33;17.47;;;4.80;99.90;;;;;;5008700;28;20205;-51
2023/02/24 07:21:11;;;;;;;31.83;18.30;;;4.90;99.90;;;;;;5004650;28;20700;-49
2023/02/24 07:23:41;;;;;;;37.27;20.40;;;4.90;99.90;;;;;;5013533;28;20222;-49
2023/02/24 07:26:10;;;;;;;32.53;19.07;;;5.00;99.90;;;;;;5009910;28;20210;-50
2023/02/24 07:28:39;;;;;;;28.70;18.03;;;4.90;99.90;;;;;;5006444;28;20207;-51
2023/02/24 07:31:08;;;;;;;23.93;15.83;;;5.00;99.90;;;;;;5007556;28;20282;-51
2023/02/24 07:33:36;;;;;;;32.20;18.60;;;5.10;99.90;;;;;;5009639;28;20632;-51
2023/02/24 07:36:07;;;;;;;28.53;17.60;;;5.10;99.90;;;;;;5011789;28;20212;-49
2023/02/24 07:38:39;;;;;;;30.40;18.77;;;5.10;99.90;;;;;;5013876;28;20450;-49
2023/02/24 07:41:09;;;;;;;34.27;21.70;;;5.20;99.90;;;;;;5005681;28;20222;-49
2023/02/24 07:43:37;;;;;;;30.07;19.33;;;5.20;99.90;;;;;;5012542;28;20330;-49
2023/02/24 07:46:08;;;;;;;38.17;18.60;;;5.10;99.90;;;;;;5012172;28;20208;-50
2023/02/24 07:48:36;;;;;;;25.50;16.80;;;5.00;99.90;;;;;;5010496;28;20294;-50
2023/02/24 07:51:07;;;;;;;32.60;19.73;;;5.00;99.90;;;;;;5005090;28;20682;-50
2023/02/24 07:53:34;;;;;;;26.57;16.80;;;5.10;99.90;;;;;;5008613;28;20206;-48
2023/02/24 07:56:09;;;;;;;21.33;15.67;;;5.10;99.90;;;;;;5012111;28;20202;-49
2023/02/24 07:58:36;;;;;;;23.73;17.10;;;5.20;99.90;;;;;;5011454;28;20206;-51
2023/02/24 08:01:07;;;;;;;24.80;16.90;;;5.80;99.90;;;;;;5012043;28;20657;-50
2023/02/24 08:03:40;;;;;;;17.80;14.50;;;6.20;99.90;;;;;;5012236;28;20296;-49
2023/02/24 08:06:14;;;;;;;20.77;14.87;;;6.80;99.90;;;;;;5011373;28;20220;-50
2023/02/24 08:08:56;;;;;;;19.87;14.70;;;7.20;99.90;;;;;;5009156;28;20228;-51
2023/02/24 08:11:26;;;;;;;16.37;12.10;;;7.40;99.90;;;;;;5009729;28;20225;-50
2023/02/24 08:13:56;;;;;;;20.27;12.90;;;7.60;99.90;;;;;;5010255;28;20278;-49
2023/02/24 08:16:23;;;;;;;17.60;11.33;;;7.40;99.90;;;;;;5011221;28;20212;-50
2023/02/24 08:18:56;;;;;;;16.50;11.03;;;7.40;99.90;;;;;;5009407;28;20218;-50
2023/02/24 08:21:26;;;;;;;17.73;11.33;;;7.60;99.90;;;;;;5007230;28;20298;-49
2023/02/24 08:23:53;;;;;;;16.57;11.63;;;7.80;99.90;;;;;;5010221;28;20691;-50
2023/02/24 08:26:29;;;;;;;19.53;14.13;;;8.20;99.90;;;;;;5010230;28;20205;-49
2023/02/24 08:28:57;;;;;;;18.87;13.77;;;8.60;99.90;;;;;;5005998;28;20201;-49
2023/02/24 08:31:24;;;;;;;18.80;12.13;;;8.60;99.90;;;;;;5009003;28;20278;-50
2023/02/24 08:33:55;;;;;;;18.30;11.87;;;9.00;99.90;;;;;;5008327;28;20267;-51
2023/02/24 08:36:24;;;;;;;16.13;11.10;;;9.00;99.90;;;;;;5009151;28;20199;-49
2023/02/24 08:38:52;;;;;;;12.03;10.43;;;9.30;99.90;;;;;;5006652;28;20210;-51
2023/02/24 08:41:28;;;;;;;13.77;9.27;;;9.80;99.90;;;;;;5010106;28;20698;-50
2023/02/24 08:43:56;;;;;;;16.60;11.20;;;10.10;99.90;;;;;;5011680;28;20191;-50
2023/02/24 08:46:25;;;;;;;19.03;9.87;;;10.00;99.90;;;;;;5009961;28;20206;-51
2023/02/24 08:48:55;;;;;;;18.93;10.50;;;9.80;99.90;;;;;;5010836;28;20215;-50
2023/02/24 08:51:27;;;;;;;17.03;11.00;;;9.30;99.90;;;;;;5011485;28;20607;-50
2023/02/24 08:53:55;;;;;;;15.60;10.77;;;9.00;99.90;;;;;;5011428;28;20205;-50
2023/02/24 08:56:24;;;;;;;17.43;10.17;;;9.10;99.90;;;;;;5009465;28;20201;-50
2023/02/24 08:58:55;;;;;;;12.17;9.10;;;9.30;99.90;;;;;;5010800;28;20255;-49
2023/02/24 09:01:27;;;;;;;12.50;8.63;;;9.60;99.90;;;;;;5010725;28;20522;-50
2023/02/24 09:03:56;;;;;;;13.80;8.43;;;9.70;99.90;;;;;;5011585;28;20209;-51
2023/02/24 09:06:33;;;;;;;10.27;8.10;;;10.40;99.90;;;;;;5011402;28;20232;-50
2023/02/24 09:09:19;;;;;;;9.23;7.80;;;10.70;99.90;;;;;;5010480;28;20741;-50
2023/02/24 09:11:48;;;;;;;13.57;8.37;;;11.40;99.90;;;;;;5011369;28;20606;-50
2023/02/24 09:14:17;;;;;;;11.00;8.13;;;12.20;99.90;;;;;;5011441;28;20315;-49
2023/02/24 09:17:05;;;;;;;10.87;8.00;;;12.90;99.90;;;;;;5010407;28;20210;-52
2023/02/24 09:25:22;;;;;;;12.50;8.37;;;14.10;99.90;;;;;;4991241;28;20194;-51
2023/02/24 09:27:54;;;;;;;11.73;6.93;;;14.20;99.90;;;;;;4999547;28;20207;-48
2023/02/24 09:30:37;;;;;;;10.43;7.90;;;14.20;99.90;;;;;;5010959;28;20259;-49
2023/02/24 09:33:16;;;;;;;10.27;7.67;;;14.60;99.90;;;;;;5010834;28;20688;-51
2023/02/24 09:35:48;;;;;;;13.03;6.53;;;14.30;99.90;;;;;;5010120;28;20219;-52
2023/02/24 09:38:17;;;;;;;11.67;6.83;;;13.80;99.90;;;;;;5009683;28;20205;-52
2023/02/24 09:40:50;;;;;;;8.20;6.57;;;13.50;99.90;;;;;;5011194;28;20269;-50
2023/02/24 09:43:23;;;;;;;8.47;6.87;;;13.60;99.90;;;;;;5011007;28;20673;-52
2023/02/24 09:45:57;;;;;;;9.93;6.50;;;13.30;99.90;;;;;;5011265;28;20225;-49
2023/02/24 09:48:42;;;;;;;8.57;6.23;;;13.40;99.90;;;;;;5008946;28;20490;-50
2023/02/24 09:51:20;;;;;;;13.80;6.17;;;12.70;99.90;;;;;;5004366;28;20311;-52
2023/02/24 09:53:51;;;;;;;11.97;6.83;;;12.50;99.90;;;;;;5010896;28;20588;-51
2023/02/24 09:56:26;;;;;;;16.10;7.20;;;12.40;99.90;;;;;;5010467;28;20229;-51
2023/02/24 09:59:08;;;;;;;12.90;6.87;;;12.70;99.90;;;;;;5009780;28;20240;-51
2023/02/24 10:01:45;;;;;;;8.40;6.00;;;13.30;99.90;;;;;;5009248;28;20311;-51
2023/02/24 10:04:30;;;;;;;12.53;6.70;;;14.60;99.90;;;;;;5005318;28;20207;-51
2023/02/24 10:07:04;;;;;;;9.87;6.30;;;15.60;99.90;;;;;;5009248;28;20203;-49
2023/02/24 10:09:35;;;;;;;18.73;11.87;;;16.30;99.90;;;;;;5012979;28;20851;-49
2023/02/24 10:12:10;;;;;;;17.50;12.20;;;16.70;99.90;;;;;;5003942;28;20230;-49
2023/02/24 10:14:42;;;;;;;16.10;13.23;;;16.40;99.90;;;;;;5010008;28;20540;-51
2023/02/24 10:17:29;;;;;;;17.77;14.70;;;16.10;99.90;;;;;;5001993;28;20265;-52
2023/02/24 10:20:12;;;;;;;18.30;13.87;;;16.20;99.90;;;;;;5009784;28;20203;-50
2023/02/24 10:22:51;;;;;;;16.57;13.33;;;15.50;99.90;;;;;;5008876;28;20290;-50
2023/02/24 10:25:38;;;;;;;18.57;13.30;;;15.00;99.90;;;;;;5010805;28;20249;-49
2023/02/24 10:28:21;;;;;;;15.40;13.17;;;14.80;99.90;;;;;;5010747;28;20623;-52
2023/02/24 10:31:02;;;;;;;14.53;13.07;;;14.70;99.90;;;;;;5009120;28;20284;-50
2023/02/24 10:33:37;;;;;;;17.00;12.43;;;14.90;99.90;;;;;;5010659;28;20677;-50
2023/02/24 10:36:11;;;;;;;14.37;12.70;;;15.10;99.90;;;;;;5010271;28;20260;-50
2023/02/24 10:38:44;;;;;;;15.43;12.03;;;15.40;99.90;;;;;;5009066;28;20198;-50
2023/02/24 10:41:12;;;;;;;14.33;12.83;;;15.40;99.90;;;;;;5010563;28;20305;-50
2023/02/24 10:43:45;;;;;;;15.67;13.57;;;14.90;99.90;;;;;;5010885;28;20199;-50
2023/02/24 10:46:32;;;;;;;17.30;13.43;;;14.30;99.90;;;;;;5008781;28;20205;-50
2023/02/24 10:49:04;;;;;;;16.17;13.77;;;13.60;99.90;;;;;;5009581;28;20608;-50
2023/02/24 10:51:37;;;;;;;21.33;14.23;;;13.40;99.90;;;;;;5014269;28;20306;-50
2023/02/24 10:57:06;;;;;;;18.17;14.20;;;13.00;99.90;;;;;;5012853;28;20228;-52
2023/02/24 11:02:56;;;;;;;17.93;13.50;;;13.00;99.90;;;;;;5033879;28;20231;-49
2023/02/24 11:05:37;;;;;;;21.77;13.70;;;13.00;99.90;;;;;;5033506;28;20270;-50
2023/02/24 11:08:35;;;;;;;19.77;14.47;;;13.00;99.90;;;;;;5004524;28;20208;-49
2023/02/24 11:11:18;;;;;;;17.70;15.47;;;13.00;99.90;;;;;;5018076;28;20229;-50
2023/02/24 11:19:29;;;;;;;15.03;13.43;;;12.40;99.90;;;;;;5013572;28;20688;-49
2023/02/24 11:21:57;;;;;;;16.93;14.30;;;12.50;99.90;;;;;;5013597;28;20281;-50
2023/02/24 11:24:26;;;;;;;18.90;14.10;;;12.50;99.90;;;;;;5013506;28;20280;-50
2023/02/24 11:26:53;;;;;;;24.00;17.00;;;12.20;99.90;;;;;;5012007;28;20261;-50
2023/02/24 11:29:34;;;;;;;26.37;20.80;;;12.00;99.90;;;;;;5013447;28;20611;-49
2023/02/24 11:32:28;;;;;;;25.53;21.97;;;11.80;99.90;;;;;;5013601;28;20366;-50
2023/02/24 11:35:04;;;;;;;24.17;17.57;;;11.60;99.90;;;;;;5013327;28;20258;-50
2023/02/24 11:37:41;;;;;;;20.93;15.90;;;11.50;99.90;;;;;;5011406;28;20249;-49
2023/02/24 11:40:15;;;;;;;20.13;15.53;;;11.10;99.90;;;;;;5005514;28;20304;-50
2023/02/24 11:42:48;;;;;;;19.03;14.93;;;10.90;99.90;;;;;;5013094;28;20683;-49
2023/02/24 11:45:28;;;;;;;20.47;15.03;;;10.90;99.90;;;;;;5011035;28;20198;-50
2023/02/24 11:47:59;;;;;;;21.43;15.33;;;10.80;99.90;;;;;;5012657;28;20204;-49
2023/02/24 11:50:35;;;;;;;21.10;15.57;;;10.70;99.90;;;;;;5013541;28;20222;-49
2023/02/24 11:53:07;;;;;;;22.50;15.93;;;10.60;99.90;;;;;;5003880;28;20570;-50
2023/02/24 11:55:41;;;;;;;22.07;17.50;;;10.60;99.90;;;;;;5012105;28;20633;-50
2023/02/24 11:58:17;;;;;;;26.60;19.80;;;10.60;99.90;;;;;;5010924;28;20233;-49
2023/02/24 12:00:53;;;;;;;33.23;22.90;;;10.60;99.90;;;;;;5011353;28;20307;-48
2023/02/24 12:03:29;;;;;;;33.93;22.37;;;10.60;99.90;;;;;;5013154;28;20275;-49
2023/02/24 12:06:03;;;;;;;29.40;22.10;;;10.60;99.90;;;;;;5012857;28;20201;-50
2023/02/24 12:08:34;;;;;;;24.00;17.17;;;10.60;99.90;;;;;;5011164;28;20209;-51
2023/02/24 12:11:11;;;;;;;22.00;15.43;;;10.70;99.90;;;;;;5010929;28;20557;-51
2023/02/24 12:13:42;;;;;;;24.67;17.73;;;10.80;99.90;;;;;;5012787;28;20211;-50
2023/02/24 12:16:15;;;;;;;22.93;16.43;;;10.90;99.90;;;;;;5012673;28;20276;-48
2023/02/24 12:18:47;;;;;;;23.40;16.63;;;11.10;99.90;;;;;;5011337;28;20208;-50
2023/02/24 12:21:20;;;;;;;17.57;15.27;;;11.20;99.90;;;;;;5006453;28;20215;-50
2023/02/24 12:23:51;;;;;;;23.03;16.60;;;11.20;99.90;;;;;;5012687;28;20283;-50
2023/02/24 12:26:23;;;;;;;30.50;22.33;;;11.20;99.90;;;;;;5011190;28;20193;-49
2023/02/24 12:29:08;;;;;;;30.70;20.07;;;11.10;99.90;;;;;;5012331;28;20253;-49
2023/02/24 12:31:44;;;;;;;20.30;15.80;;;10.90;99.90;;;;;;5010144;28;20573;-48
2023/02/24 12:34:15;;;;;;;21.93;14.57;;;10.90;99.90;;;;;;5010188;28;20197;-49
2023/02/24 12:37:16;;;;;;;16.20;12.93;;;10.60;99.90;;;;;;5009747;28;20284;-50
2023/02/24 12:39:52;;;;;;;20.20;12.27;;;10.70;99.90;;;;;;5012166;28;20207;-50
2023/02/24 12:42:29;;;;;;;16.57;11.67;;;10.90;99.90;;;;;;5012162;28;20204;-50
2023/02/24 12:45:03;;;;;;;17.33;13.10;;;10.80;99.90;;;;;;5012373;28;20354;-50
2023/02/24 12:47:45;;;;;;;24.07;15.97;;;11.00;99.90;;;;;;5012004;28;20261;-49
2023/02/24 12:50:31;;;;;;;18.40;12.77;;;11.20;99.90;;;;;;5010953;28;20786;-50
2023/02/24 12:53:06;;;;;;;20.03;13.00;;;11.20;99.90;;;;;;5011923;28;20269;-50
2023/02/24 12:55:44;;;;;;;20.70;14.23;;;11.40;99.90;;;;;;5011486;28;20250;-51
2023/02/24 12:58:16;;;;;;;18.57;13.53;;;11.70;99.90;;;;;;5011696;28;20298;-51
2023/02/24 13:00:55;;;;;;;20.90;13.33;;;11.80;99.90;;;;;;5012274;28;20264;-50
2023/02/24 13:03:39;;;;;;;19.67;14.17;;;11.80;99.90;;;;;;5011871;28;20245;-49
2023/02/24 13:06:15;;;;;;;21.13;14.37;;;11.80;99.90;;;;;;5011865;28;20292;-50
2023/02/24 13:08:51;;;;;;;17.73;13.23;;;11.80;99.90;;;;;;5010460;28;20295;-50
2023/02/24 13:11:29;;;;;;;23.73;13.40;;;11.70;99.90;;;;;;5006099;28;20219;-48
2023/02/24 13:14:04;;;;;;;25.73;13.70;;;11.70;99.90;;;;;;5012005;28;20208;-50
2023/02/24 13:16:33;;;;;;;22.50;14.10;;;11.60;99.90;;;;;;5011485;28;20711;-50
2023/02/24 13:19:17;;;;;;;21.67;13.73;;;11.40;99.90;;;;;;5011460;28;20294;-48
2023/02/24 13:21:55;;;;;;;19.57;14.00;;;11.40;99.90;;;;;;5047346;22;20837;-49
2023/02/24 13:24:24;;;;;;;20.60;14.43;;;11.40;99.90;;;;;;5035095;28;20283;-48
2023/02/24 13:26:51;;;;;;;19.03;13.17;;;11.20;99.90;;;;;;5044900;28;20656;-47
2023/02/24 13:29:20;;;;;;;18.17;13.43;;;11.10;99.90;;;;;;5045780;28;20204;-48